Time;durP1;ratioP1;P1;durP2;ratioP2;P2;SDS_P1;SDS_P2;PMS_P1;PMS_P2;Temp;Humidity;BMP_temperature;BMP_pressure;BME280_temperature;BME280_humidity;BME280_pressure;Samples;Min_cycle;Max_cycle;Signal;HPM_P1;HPM_P2
2022/08/12 00:44:54;;;;;;;3.13;2.50;;;22.90;43.70;;;-142.21;38.83;112049.66;5051903;28;20216;-76
2022/08/12 00:47:24;;;;;;;2.90;2.70;;;22.90;43.60;;;-142.21;38.90;112049.66;5050239;28;20238;-75
2022/08/12 00:49:53;;;;;;;3.90;2.83;;;22.90;43.80;;;-142.21;39.04;112049.66;5038262;28;20683;-75
2022/08/12 00:52:20;;;;;;;2.57;2.37;;;22.80;43.80;;;-142.21;38.96;112049.66;5042944;28;20650;-76
2022/08/12 00:54:50;;;;;;;2.70;2.50;;;22.80;43.70;;;-142.21;38.73;112049.66;5049404;28;20286;-77
2022/08/12 00:57:21;;;;;;;4.23;2.47;;;22.80;43.60;;;-142.21;38.57;112049.66;5051907;28;20221;-77
2022/08/12 00:59:52;;;;;;;2.50;2.30;;;22.80;43.50;;;-142.21;38.80;112049.66;5054061;28;20300;-76
2022/08/12 01:02:26;;;;;;;3.00;2.60;;;22.80;43.70;;;-142.21;38.49;112049.66;5036356;28;20206;-77
2022/08/12 01:13:20;;;;;;;2.50;2.30;;;22.70;43.90;;;-142.21;38.66;112049.66;5034538;28;20270;-77
2022/08/12 01:15:51;;;;;;;2.40;2.20;;;22.70;43.70;;;-142.21;38.61;112049.66;5034757;28;20190;-76
2022/08/12 01:18:25;;;;;;;2.87;2.30;;;22.70;43.60;;;-142.21;38.64;112049.66;5039769;28;20283;-77
2022/08/12 01:21:06;;;;;;;4.07;2.70;;;22.70;43.60;;;-142.21;38.41;112049.66;5051254;28;20194;-76
2022/08/12 01:23:50;;;;;;;2.47;2.17;;;22.70;43.50;;;-142.21;38.50;112049.66;5050220;28;20196;-76
2022/08/12 01:26:23;;;;;;;4.90;2.77;;;22.70;43.80;;;-142.21;38.76;112049.66;5042090;28;20194;-76
2022/08/12 01:28:56;;;;;;;4.43;2.47;;;22.70;43.80;;;-142.21;38.94;112049.66;5035626;28;20852;-78
2022/08/12 01:31:23;;;;;;;5.03;2.70;;;22.70;44.00;;;-142.21;39.02;112049.66;5034447;28;20191;-78
2022/08/12 01:34:04;;;;;;;3.80;3.00;;;22.70;44.10;;;-142.21;38.94;112049.66;5033686;28;20216;-78
2022/08/12 01:36:42;;;;;;;3.00;2.50;;;22.60;44.00;;;-142.21;39.08;112049.66;5032937;28;20201;-77
2022/08/12 01:39:10;;;;;;;3.13;2.37;;;22.60;44.00;;;-142.21;38.94;112049.66;5033140;28;20238;-79
2022/08/12 01:41:48;;;;;;;2.73;2.30;;;22.60;44.00;;;-142.21;39.00;112049.66;5038817;28;20569;-78
2022/08/12 01:44:17;;;;;;;2.47;2.27;;;22.50;43.90;;;-142.21;38.37;112049.66;5053374;28;20194;-77
2022/08/12 01:46:58;;;;;;;2.67;2.47;;;22.60;43.40;;;-142.21;38.12;112049.66;5043056;28;20202;-77
2022/08/12 01:49:55;;;;;;;2.40;2.20;;;22.60;43.30;;;-142.21;37.86;112049.66;5052737;28;20245;-78
2022/08/12 01:52:37;;;;;;;3.07;2.77;;;22.60;42.90;;;-142.21;37.35;112049.66;5051366;28;20655;-78
2022/08/12 01:55:07;;;;;;;2.30;2.10;;;22.70;42.70;;;-142.21;37.16;112049.66;5040204;28;20194;-78
2022/08/12 01:57:46;;;;;;;3.90;2.20;;;22.70;42.40;;;-142.21;36.88;112049.66;5053528;28;20621;-78
2022/08/12 02:00:18;;;;;;;2.70;2.27;;;22.70;42.00;;;-142.21;36.81;112049.66;5048854;28;20190;-77
2022/08/12 02:02:57;;;;;;;2.53;2.33;;;22.90;42.10;;;-142.21;36.62;112049.66;5033450;28;20194;-78
2022/08/12 02:11:31;;;;;;;2.00;1.80;;;22.90;41.70;;;-142.21;37.17;112049.66;5053229;28;20193;-78
2022/08/12 02:14:47;;;;;;;3.67;2.40;;;22.90;42.20;;;-142.21;37.31;112049.66;5051327;28;20623;-78
2022/08/12 02:17:46;;;;;;;3.10;2.10;;;22.90;42.30;;;-142.21;37.29;112049.66;4986506;28;20234;-77
2022/08/12 02:20:23;;;;;;;2.97;2.30;;;22.90;42.50;;;-142.21;37.17;112049.66;5041172;28;20704;-76
2022/08/12 02:22:52;;;;;;;2.47;2.27;;;22.80;42.20;;;-142.21;37.42;112049.66;5052231;28;20233;-78
2022/08/12 02:25:32;;;;;;;3.50;1.90;;;22.80;42.30;;;-142.21;37.39;112049.66;5044714;28;20286;-75
2022/08/12 02:28:00;;;;;;;2.33;2.13;;;22.80;42.40;;;-142.21;37.19;112049.66;5039774;28;20608;-76
2022/08/12 02:30:33;;;;;;;5.77;2.77;;;22.70;42.10;;;-142.21;37.25;112049.66;5051169;28;20225;-75
2022/08/12 02:33:03;;;;;;;2.40;2.20;;;22.70;42.10;;;-142.21;37.35;112049.66;5053007;28;20232;-76
2022/08/12 02:35:34;;;;;;;3.00;2.50;;;22.80;42.20;;;-142.21;37.21;112049.66;5045129;28;20214;-75
2022/08/12 02:38:07;;;;;;;2.67;1.90;;;22.70;42.00;;;-142.21;37.07;112049.66;5032484;28;20203;-75
2022/08/12 02:40:39;;;;;;;2.00;1.80;;;22.80;42.10;;;-142.21;37.28;112049.66;5037960;28;20240;-76
2022/08/12 02:43:14;;;;;;;2.70;2.17;;;22.80;42.20;;;-142.21;37.31;112049.66;5049299;28;20282;-76
2022/08/12 02:45:52;;;;;;;2.43;2.23;;;22.80;42.20;;;-142.21;37.23;112049.66;5041559;28;20197;-75
2022/08/12 02:48:26;;;;;;;2.00;1.90;;;22.80;42.20;;;-142.21;37.24;112049.66;5047139;28;20198;-76
2022/08/12 02:50:57;;;;;;;2.30;2.10;;;22.80;42.10;;;-142.21;37.36;112049.66;5058427;28;20213;-75
2022/08/12 02:53:26;;;;;;;2.23;2.00;;;22.80;42.20;;;-142.21;37.05;112049.66;5041819;28;20306;-77
2022/08/12 02:55:56;;;;;;;2.87;2.40;;;22.80;42.10;;;-142.21;37.22;112049.66;5042908;28;20202;-76
2022/08/12 02:58:25;;;;;;;2.30;2.10;;;22.80;42.20;;;-142.21;37.40;112049.66;5051139;28;20209;-76
2022/08/12 03:00:54;;;;;;;3.53;2.10;;;22.80;42.20;;;-142.21;37.42;112049.66;5045443;28;20206;-75
2022/08/12 03:03:25;;;;;;;2.40;2.20;;;22.80;42.50;;;-142.21;37.78;112049.66;5031139;28;20216;-75
2022/08/12 03:06:00;;;;;;;2.83;2.13;;;22.80;42.70;;;-142.21;37.85;112049.66;5037429;28;20218;-77
2022/08/12 03:08:39;;;;;;;2.60;2.10;;;22.70;42.70;;;-142.21;37.92;112049.66;5044686;28;20236;-76
2022/08/12 03:11:16;;;;;;;2.33;2.13;;;22.70;42.70;;;-142.21;37.96;112049.66;5038435;28;20206;-76
2022/08/12 03:13:52;;;;;;;2.70;2.20;;;22.70;42.70;;;-142.21;38.36;112049.66;5052424;28;20194;-75
2022/08/12 03:16:23;;;;;;;2.73;2.20;;;22.60;43.10;;;-142.21;38.44;112049.66;5051566;28;20194;-75
2022/08/12 03:18:51;;;;;;;2.50;2.30;;;22.60;43.10;;;-142.21;38.36;112049.66;5039180;28;20290;-74
2022/08/12 03:21:19;;;;;;;2.60;2.40;;;22.60;43.10;;;-142.21;38.28;112049.66;5048523;28;20224;-75
2022/08/12 03:23:48;;;;;;;2.30;2.00;;;22.50;43.00;;;-142.21;38.34;112049.66;5051254;28;20202;-75
2022/08/12 03:26:18;;;;;;;2.60;1.93;;;22.50;43.10;;;-142.21;38.81;112049.66;5053019;28;20285;-76
2022/08/12 03:28:52;;;;;;;2.23;2.03;;;22.50;43.30;;;-142.21;38.78;112049.66;5032565;28;20321;-76
2022/08/12 03:31:24;;;;;;;3.20;2.00;;;22.40;43.50;;;-142.21;38.89;112049.66;5035339;28;20683;-75
2022/08/12 03:33:53;;;;;;;2.73;2.17;;;22.40;43.50;;;-142.21;39.00;112049.66;5032380;28;20305;-76
2022/08/12 03:36:22;;;;;;;2.30;2.10;;;22.30;43.80;;;-142.21;39.16;112049.66;5035989;28;20674;-76
2022/08/12 03:39:17;;;;;;;2.27;2.07;;;22.30;44.40;;;-142.21;39.21;112049.66;5051809;28;20221;-76
2022/08/12 03:41:48;;;;;;;3.23;2.37;;;22.20;43.70;;;-142.21;39.24;112049.66;5032034;28;20257;-76
2022/08/12 04:01:08;;;;;;;2.90;2.17;;;22.40;43.80;;;-142.21;38.92;112049.66;5035799;28;20201;-75
2022/08/12 04:06:25;;;;;;;5.30;2.30;;;22.40;43.90;;;-142.21;39.05;112049.66;5050270;28;20210;-75
2022/08/12 04:08:56;;;;;;;3.03;2.10;;;22.40;44.00;;;-142.21;39.15;112049.66;5041083;28;20670;-76
2022/08/12 04:14:12;;;;;;;2.83;2.23;;;22.30;44.40;;;-142.21;39.43;112049.66;5054790;28;20249;-76
2022/08/12 04:16:40;;;;;;;2.70;2.30;;;22.30;44.30;;;-142.21;39.61;112049.66;5053509;28;20240;-75
2022/08/12 04:19:09;;;;;;;3.20;2.40;;;22.30;44.40;;;-142.21;39.42;112049.66;5054689;28;20211;-75
2022/08/12 04:21:39;;;;;;;3.10;2.37;;;22.30;44.30;;;-142.21;40.21;112049.66;5040193;28;20206;-74
2022/08/12 04:24:08;;;;;;;4.67;2.53;;;22.30;45.00;;;-142.21;41.40;112049.66;5046144;28;20288;-75
2022/08/12 04:26:38;;;;;;;2.30;2.10;;;22.20;45.60;;;-142.21;40.60;112049.66;5050945;28;20213;-74
2022/08/12 04:29:06;;;;;;;4.60;2.47;;;22.20;45.10;;;-142.21;43.15;112049.66;5036506;28;20533;-75
2022/08/12 04:31:35;;;;;;;2.73;2.40;;;22.20;46.70;;;-142.21;43.47;112049.66;5053349;28;20253;-74
2022/08/12 04:34:06;;;;;;;2.80;2.60;;;22.10;47.00;;;-142.21;43.69;112049.66;5041643;28;20264;-75
2022/08/12 04:36:36;;;;;;;3.23;2.53;;;22.10;47.00;;;-142.21;43.38;112049.66;5043177;28;20244;-74
2022/08/12 04:39:07;;;;;;;3.93;2.60;;;22.00;46.80;;;-142.21;43.47;112049.66;5047578;28;20263;-74
2022/08/12 04:41:36;;;;;;;6.00;3.50;;;22.00;47.00;;;-142.21;43.60;112049.66;5038819;28;20237;-73
2022/08/12 04:44:04;;;;;;;5.00;2.80;;;22.00;46.90;;;-142.21;43.68;112049.66;5047396;28;20532;-77
2022/08/12 04:46:32;;;;;;;6.90;3.10;;;21.90;47.00;;;-142.21;43.99;112049.66;5035879;28;20293;-75
2022/08/12 04:49:01;;;;;;;6.60;3.23;;;22.00;47.20;;;-142.21;43.28;112049.66;5034538;28;20282;-77
2022/08/12 04:51:29;;;;;;;10.77;4.07;;;22.00;47.20;;;-142.21;45.31;112049.66;5049037;28;20217;-76
2022/08/12 04:53:59;;;;;;;6.33;4.00;;;21.90;47.90;;;-142.21;47.25;112049.66;5052864;28;20666;-77
2022/08/12 04:56:28;;;;;;;9.50;3.70;;;21.90;48.70;;;-142.21;48.17;112049.66;5053075;28;20194;-77
2022/08/12 04:58:58;;;;;;;7.43;3.47;;;21.90;49.60;;;-142.21;48.36;112049.66;5059959;28;20238;-76
2022/08/12 05:01:29;;;;;;;5.93;3.53;;;21.80;49.10;;;-142.21;47.76;112049.66;5046900;28;20217;-75
2022/08/12 05:03:58;;;;;;;7.37;2.93;;;21.80;49.00;;;-142.21;47.14;112049.66;5049025;28;20236;-75
2022/08/12 05:06:26;;;;;;;6.03;2.90;;;21.80;48.70;;;-142.21;46.87;112049.66;5051298;28;20202;-75
2022/08/12 05:08:54;;;;;;;4.30;2.70;;;21.80;48.90;;;-142.21;47.16;112049.66;5052040;28;20289;-75
2022/08/12 05:11:24;;;;;;;3.20;2.10;;;21.80;48.80;;;-142.21;45.89;112049.66;5053350;28;20237;-76
2022/08/12 05:13:58;;;;;;;2.63;2.33;;;21.80;48.50;;;-142.21;45.24;112049.66;5049441;28;20700;-76
2022/08/12 05:16:26;;;;;;;3.93;2.27;;;21.80;48.10;;;-142.21;45.65;112049.66;5043854;28;20198;-70
2022/08/12 05:18:53;;;;;;;2.87;2.57;;;21.80;48.20;;;-142.21;46.00;112049.66;5050125;28;20213;-73
2022/08/12 05:21:21;;;;;;;4.33;2.30;;;21.80;48.40;;;-142.21;45.74;112049.66;5039976;28;20225;-74
2022/08/12 05:23:48;;;;;;;3.87;3.07;;;21.80;48.10;;;-142.21;46.41;112049.66;5037242;28;20198;-75
2022/08/12 05:26:16;;;;;;;3.60;2.50;;;21.80;48.40;;;-142.21;45.59;112049.66;5035758;28;20218;-74
2022/08/12 05:28:45;;;;;;;2.70;2.27;;;21.80;48.30;;;-142.21;45.76;112049.66;5047533;28;20671;-75
2022/08/12 05:31:12;;;;;;;3.13;2.43;;;21.90;48.10;;;-142.21;44.76;112049.66;5048716;28;20775;-74
2022/08/12 05:33:40;;;;;;;4.13;2.17;;;21.90;47.90;;;-142.21;44.57;112049.66;5043366;28;20661;-75
2022/08/12 05:36:11;;;;;;;3.30;1.93;;;22.00;47.80;;;-142.21;44.21;112049.66;4999966;28;20198;-70
2022/08/12 05:38:58;;;;;;;2.90;2.67;;;22.10;47.50;;;-142.21;43.99;112049.66;5033977;28;20226;-70
2022/08/12 05:41:30;;;;;;;4.67;2.70;;;22.20;47.40;;;-142.21;43.99;112049.66;5033410;28;20681;-71
2022/08/12 05:44:04;;;;;;;3.10;2.67;;;22.20;47.20;;;-142.21;43.75;112049.66;5034975;28;20613;-70
2022/08/12 05:46:33;;;;;;;2.60;2.10;;;22.30;47.40;;;-142.21;42.93;112049.66;5034552;28;20194;-71
2022/08/12 05:49:03;;;;;;;4.03;2.97;;;22.40;46.80;;;-142.21;42.62;112049.66;5036060;28;20229;-70
2022/08/12 05:51:37;;;;;;;5.47;2.23;;;22.50;46.80;;;-142.21;43.72;112049.66;5033371;28;20289;-70
2022/08/12 05:54:05;;;;;;;4.40;2.57;;;22.60;47.40;;;-142.21;43.51;112049.66;5036453;28;20222;-68
2022/08/12 05:56:36;;;;;;;3.73;1.93;;;22.60;47.00;;;-142.21;43.01;112049.66;5053464;28;20296;-70
2022/08/12 05:59:09;;;;;;;2.37;2.10;;;22.70;47.00;;;-142.21;42.92;112049.66;5050689;28;20198;-69
2022/08/12 06:01:41;;;;;;;2.27;2.07;;;22.70;46.80;;;-142.21;42.58;112049.66;5053410;28;20236;-69
2022/08/12 06:04:09;;;;;;;3.87;2.10;;;22.80;46.70;;;-142.21;42.22;112049.66;5052044;28;20239;-70
2022/08/12 06:06:40;;;;;;;3.30;2.33;;;22.90;46.60;;;-142.21;41.80;112049.66;5033948;28;20286;-70
2022/08/12 06:09:10;;;;;;;3.23;2.20;;;23.00;46.40;;;-142.21;41.94;112049.66;5052280;28;20192;-70
2022/08/12 06:11:40;;;;;;;2.40;2.20;;;23.10;46.40;;;-142.21;41.83;112049.66;5044016;28;20590;-69
2022/08/12 06:14:09;;;;;;;6.03;2.67;;;23.10;46.40;;;-142.21;41.73;112049.66;5032706;28;20198;-70
2022/08/12 06:16:36;;;;;;;2.77;2.20;;;23.30;46.60;;;-142.21;41.68;112049.66;5039757;28;20534;-70
2022/08/12 06:19:06;;;;;;;3.37;2.57;;;23.30;46.10;;;-142.21;41.50;112049.66;5043823;28;20236;-70
2022/08/12 06:21:36;;;;;;;4.83;2.40;;;23.40;46.10;;;-142.21;40.80;112049.66;5064099;28;20186;-70
2022/08/12 06:24:04;;;;;;;2.30;1.90;;;23.50;45.70;;;-142.21;40.79;112049.66;5062862;28;20293;-74
2022/08/12 06:26:33;;;;;;;2.80;2.47;;;23.60;45.80;;;-142.21;40.68;112049.66;5052488;28;20209;-70
2022/08/12 06:29:03;;;;;;;2.53;2.10;;;23.60;45.60;;;-142.21;40.37;112049.66;5052860;28;20213;-70
2022/08/12 06:31:33;;;;;;;2.47;2.23;;;23.80;45.40;;;-142.21;40.25;112049.66;5052122;28;20677;-70
2022/08/12 06:34:01;;;;;;;2.30;2.10;;;23.80;45.20;;;-142.21;40.33;112049.66;5052706;28;20243;-69
2022/08/12 06:36:29;;;;;;;2.90;2.20;;;23.90;45.40;;;-142.21;40.44;112049.66;5052155;28;20213;-70
2022/08/12 06:38:56;;;;;;;3.43;2.43;;;24.00;45.30;;;-142.21;40.55;112049.66;5052742;28;20660;-70
2022/08/12 06:44:14;;;;;;;2.53;1.97;;;24.10;45.10;;;-142.21;39.50;112049.66;5051998;28;20327;-70
2022/08/12 06:46:44;;;;;;;5.03;2.57;;;24.20;44.70;;;-142.21;40.18;112049.66;5052353;28;20199;-70
2022/08/12 06:49:12;;;;;;;3.50;2.40;;;24.30;45.30;;;-142.21;39.42;112049.66;5051968;28;20212;-69
2022/08/12 06:51:40;;;;;;;2.40;2.20;;;24.40;44.70;;;-142.21;39.66;112049.66;5052378;28;20678;-69
2022/08/12 06:54:09;;;;;;;2.50;2.30;;;24.50;44.70;;;-142.21;39.52;112049.66;5051828;28;20724;-70
2022/08/12 06:56:39;;;;;;;2.33;2.10;;;24.50;44.60;;;-142.21;39.23;112049.66;5052401;28;20201;-70
2022/08/12 06:59:06;;;;;;;2.47;2.23;;;24.70;44.30;;;-142.21;39.28;112049.66;5051440;28;20535;-70
2022/08/12 07:01:35;;;;;;;4.43;2.13;;;24.70;44.30;;;-142.21;39.03;112049.66;5052014;28;20240;-70
2022/08/12 07:04:04;;;;;;;4.83;2.17;;;24.80;44.40;;;-142.21;38.63;112049.66;5051907;28;20291;-69
2022/08/12 07:06:31;;;;;;;3.83;2.40;;;24.90;43.90;;;-142.21;38.73;112049.66;5051952;28;20607;-71
2022/08/12 07:08:58;;;;;;;2.07;1.80;;;25.00;44.00;;;-142.21;38.51;112049.66;5052600;28;20638;-70
2022/08/12 07:11:32;;;;;;;6.63;2.23;;;25.10;43.80;;;-142.21;38.43;112049.66;5051768;28;20590;-70
2022/08/12 07:14:03;;;;;;;4.20;2.10;;;25.20;43.70;;;-142.21;38.71;112049.66;5051995;28;20194;-70
2022/08/12 07:16:50;;;;;;;2.63;1.70;;;25.30;44.30;;;-142.21;37.93;112049.66;5051637;28;20285;-70
2022/08/12 07:19:20;;;;;;;4.13;2.20;;;25.30;43.30;;;-142.21;37.45;112049.66;5051668;28;20260;-71
2022/08/12 07:21:48;;;;;;;2.30;2.10;;;25.50;42.90;;;-142.21;37.78;112049.66;5052383;28;20240;-70
2022/08/12 07:24:15;;;;;;;2.33;2.00;;;25.50;43.20;;;-142.21;37.59;112049.66;5051550;28;20210;-71
2022/08/12 07:26:43;;;;;;;10.33;3.17;;;25.60;42.70;;;-142.21;37.03;112049.66;5051877;28;20708;-70
2022/08/12 07:29:11;;;;;;;3.50;2.47;;;25.70;42.40;;;-142.21;37.52;112049.66;5051680;28;20220;-70
2022/08/12 07:31:42;;;;;;;2.87;2.10;;;25.90;42.80;;;-142.21;37.14;112049.66;5050928;28;20260;-70
2022/08/12 07:34:09;;;;;;;5.53;2.23;;;25.90;42.30;;;-142.21;37.24;112049.66;5053377;28;20288;-70
2022/08/12 07:36:38;;;;;;;2.37;2.00;;;26.00;42.60;;;-142.21;37.38;112049.66;5055807;28;20205;-70
2022/08/12 07:39:06;;;;;;;2.57;1.90;;;26.10;42.60;;;-142.21;37.21;112049.66;5055588;28;20224;-69
2022/08/12 07:41:33;;;;;;;5.10;2.20;;;26.20;42.60;;;-142.21;37.20;112049.66;5055071;28;20202;-70
2022/08/12 07:44:05;;;;;;;3.83;2.07;;;26.30;42.40;;;-142.21;37.31;112049.66;5044439;28;20215;-69
2022/08/12 07:46:37;;;;;;;4.17;1.90;;;26.40;42.30;;;-142.21;35.91;112049.66;5035111;28;20282;-71
2022/08/12 07:49:09;;;;;;;3.37;2.37;;;26.50;41.20;;;-142.21;36.47;112049.66;5036002;28;20198;-70
2022/08/12 07:51:39;;;;;;;2.93;2.00;;;26.50;41.40;;;-142.21;35.95;112049.66;5041341;28;20320;-69
2022/08/12 07:54:08;;;;;;;4.57;2.10;;;26.60;41.20;;;-142.21;36.88;112049.66;5055838;28;20261;-69
2022/08/12 07:56:37;;;;;;;4.40;2.00;;;26.70;41.40;;;-142.21;36.03;112049.66;5053951;28;20240;-70
2022/08/12 07:59:07;;;;;;;2.30;2.10;;;26.80;41.20;;;-142.21;35.79;112049.66;5055542;28;20214;-69
2022/08/12 08:01:36;;;;;;;3.23;2.20;;;26.90;41.20;;;-142.21;36.85;112049.66;5053103;28;20204;-69
2022/08/12 08:06:53;;;;;;;2.17;1.97;;;27.10;41.40;;;-142.21;36.10;112049.66;5055573;28;20275;-70
2022/08/12 08:09:24;;;;;;;3.70;2.43;;;27.20;41.40;;;-142.21;35.68;112049.66;5054973;28;20229;-70
2022/08/12 08:14:39;;;;;;;2.87;2.10;;;27.30;40.40;;;-142.21;35.43;112049.66;5056192;28;20324;-70
2022/08/12 08:17:10;;;;;;;2.37;2.17;;;27.40;40.90;;;-142.21;35.27;112049.66;5054685;28;20297;-70
2022/08/12 08:19:37;;;;;;;2.97;2.00;;;27.50;40.40;;;-142.21;34.08;112049.66;5055092;28;20248;-71
2022/08/12 08:22:06;;;;;;;2.40;2.20;;;27.70;39.70;;;-142.21;34.46;112049.66;5055016;28;20246;-71
2022/08/12 08:24:34;;;;;;;4.10;2.33;;;27.70;39.40;;;-142.21;34.02;112049.66;5054084;28;20216;-70
2022/08/12 08:27:01;;;;;;;11.97;2.30;;;27.80;38.90;;;-142.21;35.04;112049.66;5054739;28;20298;-70
2022/08/12 08:29:39;;;;;;;2.10;1.90;;;27.80;39.40;;;-142.21;34.37;112049.66;5054379;28;20250;-70
2022/08/12 08:32:09;;;;;;;4.07;2.10;;;27.90;39.40;;;-142.21;33.77;112049.66;5054715;28;20222;-70
2022/08/12 08:34:37;;;;;;;2.17;1.97;;;28.00;38.90;;;-142.21;34.95;112049.66;5046069;28;20216;-70
2022/08/12 08:37:06;;;;;;;2.30;2.10;;;28.10;39.70;;;-142.21;33.84;112049.66;5034916;28;20557;-71
2022/08/12 08:39:34;;;;;;;2.27;1.93;;;28.20;38.60;;;-142.21;33.78;112049.66;5034161;28;20885;-70
2022/08/12 08:44:49;;;;;;;3.10;2.00;;;28.40;40.10;;;-142.21;33.79;112049.66;5034177;28;20231;-70
2022/08/12 08:47:16;;;;;;;2.40;1.83;;;28.50;38.80;;;-142.21;34.37;112049.66;5034145;28;20232;-69
2022/08/12 08:49:44;;;;;;;5.77;2.40;;;28.60;39.20;;;-142.21;33.06;112049.66;5034438;28;20670;-70
2022/08/12 08:52:13;;;;;;;4.60;1.80;;;28.70;38.10;;;-142.21;32.78;112049.66;5040681;28;20235;-71
2022/08/12 08:54:40;;;;;;;2.03;1.83;;;28.80;37.90;;;-142.21;33.05;112049.66;5054355;28;20239;-71
2022/08/12 08:57:08;;;;;;;3.10;2.00;;;28.90;37.80;;;-142.21;33.17;112049.66;5054241;28;20656;-70
2022/08/12 08:59:36;;;;;;;1.93;1.80;;;29.00;38.50;;;-142.21;33.78;112049.66;5053354;28;20220;-69
2022/08/12 09:02:03;;;;;;;3.23;2.10;;;29.10;38.30;;;-142.21;32.82;112049.66;5052830;28;20228;-70
2022/08/12 09:04:31;;;;;;;4.13;2.40;;;29.20;37.60;;;-142.21;32.56;112049.66;5052036;28;20238;-71
2022/08/12 09:06:58;;;;;;;4.20;2.20;;;29.30;37.70;;;-142.21;32.05;112049.66;5050819;28;20204;-71
2022/08/12 09:09:28;;;;;;;3.53;1.93;;;29.40;36.80;;;-142.21;32.42;112049.66;5044759;28;20296;-69
2022/08/12 09:14:42;;;;;;;1.67;1.57;;;29.60;36.50;;;-142.21;30.70;112049.66;5054236;28;20237;-70
2022/08/12 09:17:12;;;;;;;2.20;2.00;;;29.70;35.40;;;-142.21;30.60;112049.66;5053652;28;20208;-71
2022/08/12 09:19:40;;;;;;;2.83;1.90;;;29.70;35.00;;;-142.21;30.90;112049.66;5053862;28;20201;-70
2022/08/12 09:22:10;;;;;;;1.60;1.50;;;29.90;35.20;;;-142.21;30.63;112049.66;5054084;28;20205;-68
2022/08/12 09:27:31;;;;;;;5.17;1.80;;;30.00;33.90;;;-142.21;29.95;112049.66;4996239;28;20296;-69
2022/08/12 09:30:02;;;;;;;1.70;1.60;;;30.10;34.00;;;-142.21;29.90;112049.66;5048982;28;20201;-69
2022/08/12 09:32:29;;;;;;;1.90;1.80;;;30.10;34.10;;;-142.21;29.80;112049.66;5053282;28;20259;-70
2022/08/12 09:34:56;;;;;;;1.80;1.70;;;30.20;34.00;;;-142.21;28.70;112049.66;5052720;28;20204;-70
2022/08/12 09:37:27;;;;;;;2.37;1.73;;;30.30;33.00;;;-142.21;28.40;112049.66;5052672;28;20408;-71
2022/08/12 09:39:55;;;;;;;2.20;2.00;;;30.30;32.40;;;-142.21;28.40;112049.66;5053088;28;20732;-71
2022/08/12 09:45:23;;;;;;;4.50;1.90;;;30.20;33.20;;;-142.21;28.88;112049.66;5033643;28;20189;-71
2022/08/12 09:47:51;;;;;;;4.70;2.10;;;30.30;32.90;;;-142.21;29.20;112049.66;5050814;28;20535;-70
2022/08/12 09:50:20;;;;;;;2.23;1.93;;;30.40;33.00;;;-142.21;29.19;112049.66;5053757;28;20232;-70
2022/08/12 09:52:51;;;;;;;1.73;1.63;;;30.60;33.10;;;-142.21;28.90;112049.66;5053133;28;20245;-69
2022/08/12 09:55:25;;;;;;;3.10;1.93;;;30.80;32.80;;;-142.21;28.91;112049.66;5052842;28;20213;-69
2022/08/12 09:57:58;;;;;;;1.90;1.80;;;30.90;32.80;;;-142.21;28.63;112049.66;5053139;28;20279;-69
2022/08/12 10:00:26;;;;;;;2.43;1.50;;;31.00;32.70;;;-142.21;28.48;112049.66;5037395;28;20206;-70
2022/08/12 10:03:03;;;;;;;2.33;1.90;;;31.00;32.20;;;-142.21;28.61;112049.66;5046780;28;20193;-70
2022/08/12 10:05:32;;;;;;;2.67;2.00;;;31.20;32.10;;;-142.21;28.47;112049.66;5052105;28;20229;-71
2022/08/12 10:08:01;;;;;;;1.77;1.67;;;31.20;32.00;;;-142.21;29.08;112049.66;5051828;28;20209;-70
2022/08/12 10:10:29;;;;;;;2.10;1.90;;;31.30;32.50;;;-142.21;28.42;112049.66;5052187;28;20263;-70
2022/08/12 10:15:47;;;;;;;3.40;1.70;;;31.40;31.20;;;-142.21;29.01;112049.66;5051645;28;20185;-69
2022/08/12 10:18:14;;;;;;;2.07;1.87;;;31.50;32.30;;;-142.21;29.08;112049.66;5032919;28;20307;-70
2022/08/12 10:20:42;;;;;;;1.93;1.80;;;31.60;32.40;;;-142.21;29.16;112049.66;5032303;28;20259;-70
2022/08/12 10:23:09;;;;;;;1.80;1.70;;;31.70;32.50;;;-142.21;28.75;112049.66;5039321;28;20194;-71
2022/08/12 10:31:07;;;;;;;2.73;1.87;;;32.00;31.70;;;-142.21;28.44;112049.66;5052841;28;20688;-70
2022/08/12 10:33:34;;;;;;;2.63;1.90;;;32.00;31.90;;;-142.21;28.35;112049.66;5044232;28;20222;-70
2022/08/12 10:36:03;;;;;;;2.17;1.97;;;32.10;31.60;;;-142.21;28.74;112049.66;5032397;28;20335;-70
2022/08/12 10:38:31;;;;;;;1.97;1.83;;;32.20;31.90;;;-142.21;27.97;112049.66;5032119;28;20301;-70
2022/08/12 10:43:45;;;;;;;2.23;2.03;;;32.40;31.10;;;-142.21;27.70;112049.66;5032705;28;20212;-71
2022/08/12 10:46:16;;;;;;;2.23;2.03;;;32.40;30.90;;;-142.21;28.07;112049.66;5032661;28;20209;-70
2022/08/12 10:48:47;;;;;;;2.03;1.80;;;32.50;31.00;;;-142.21;27.49;112049.66;5032083;28;20564;-70
2022/08/12 10:51:17;;;;;;;2.10;1.90;;;32.50;30.80;;;-142.21;27.63;112049.66;5032623;28;20644;-70
2022/08/12 10:53:45;;;;;;;2.00;1.80;;;32.60;30.80;;;-142.21;28.00;112049.66;5036647;28;20241;-71
2022/08/12 10:56:15;;;;;;;3.03;2.10;;;32.60;31.00;;;-142.21;27.77;112049.66;5050089;28;20288;-72
2022/08/12 10:58:42;;;;;;;1.73;1.63;;;32.70;30.80;;;-142.21;28.24;112049.66;5051345;28;20251;-70
2022/08/12 11:01:10;;;;;;;4.83;1.80;;;32.90;31.20;;;-142.21;27.25;112049.66;5052308;28;20257;-70
2022/08/12 11:03:37;;;;;;;2.40;1.80;;;32.90;30.10;;;-142.21;26.85;112049.66;5051258;28;20545;-70
2022/08/12 11:06:06;;;;;;;2.30;1.70;;;33.00;29.90;;;-142.21;26.29;112049.66;5051268;28;20205;-71
2022/08/12 11:08:36;;;;;;;4.40;2.00;;;33.00;29.10;;;-142.21;26.62;112049.66;5047845;28;20260;-70
2022/08/12 11:11:07;;;;;;;1.87;1.60;;;33.00;29.30;;;-142.21;27.10;112049.66;5056662;28;20236;-70
2022/08/12 11:13:36;;;;;;;2.60;1.80;;;33.00;29.60;;;-142.21;26.99;112049.66;5055868;28;20579;-71
2022/08/12 11:16:05;;;;;;;3.33;1.97;;;33.10;30.10;;;-142.21;26.65;112049.66;5056052;28;20212;-70
2022/08/12 11:18:33;;;;;;;4.27;1.93;;;33.10;29.40;;;-142.21;26.86;112049.66;5055134;28;20206;-71
2022/08/12 11:21:00;;;;;;;2.63;1.60;;;33.20;29.60;;;-142.21;26.47;112049.66;5056171;28;20237;-70
2022/08/12 11:23:27;;;;;;;3.17;1.90;;;33.30;29.50;;;-142.21;27.10;112049.66;5054272;28;20198;-69
2022/08/12 11:25:54;;;;;;;3.37;1.87;;;33.40;29.60;;;-142.21;26.02;112049.66;5053076;28;20284;-70
2022/08/12 11:28:21;;;;;;;2.10;1.73;;;33.50;29.20;;;-142.21;26.09;112049.66;5054457;28;20241;-70
2022/08/12 11:30:50;;;;;;;3.57;1.70;;;33.50;28.90;;;-142.21;26.36;112049.66;5056447;28;20199;-70
2022/08/12 11:33:17;;;;;;;2.03;1.70;;;33.60;29.20;;;-142.21;25.78;112049.66;5054636;28;20317;-71
2022/08/12 11:35:44;;;;;;;5.07;2.00;;;33.60;28.40;;;-142.21;25.76;112049.66;5054402;28;20709;-71
2022/08/12 11:38:12;;;;;;;1.90;1.80;;;33.40;28.30;;;-142.21;26.20;112049.66;5055291;28;20600;-70
2022/08/12 11:40:40;;;;;;;1.80;1.70;;;33.40;28.80;;;-142.21;26.36;112049.66;5036665;28;20247;-71
2022/08/12 11:43:07;;;;;;;3.30;1.90;;;33.50;28.90;;;-142.21;26.31;112049.66;5049049;28;20290;-71
2022/08/12 11:45:34;;;;;;;4.73;2.00;;;33.60;29.40;;;-142.21;26.30;112049.66;5054271;28;20234;-70
2022/08/12 11:48:03;;;;;;;2.07;1.87;;;33.60;28.90;;;-142.21;26.02;112049.66;5055251;28;20290;-73
2022/08/12 11:50:31;;;;;;;2.47;1.67;;;33.70;28.70;;;-142.21;25.50;112049.66;5053222;28;20211;-71
2022/08/12 11:52:58;;;;;;;2.80;1.70;;;33.70;28.10;;;-142.21;25.69;112049.66;5055490;28;20219;-71
2022/08/12 11:55:28;;;;;;;3.03;1.83;;;33.60;28.30;;;-142.21;25.90;112049.66;5052871;28;20294;-69
2022/08/12 11:57:57;;;;;;;3.30;1.83;;;33.70;28.10;;;-142.21;25.06;112049.66;5049367;28;20212;-72
2022/08/12 12:00:26;;;;;;;1.73;1.50;;;33.80;27.80;;;-142.21;25.83;112049.66;5050021;28;20238;-71
2022/08/12 12:02:53;;;;;;;3.53;1.87;;;33.90;28.30;;;-142.21;25.91;112049.66;5054408;28;20216;-72
2022/08/12 12:05:22;;;;;;;1.70;1.60;;;34.00;28.50;;;-142.21;25.64;112049.66;5054343;28;20288;-71